Time;durP1;ratioP1;P1;durP2;ratioP2;P2;SDS_P1;SDS_P2;PMS_P1;PMS_P2;Temp;Humidity;BMP_temperature;BMP_pressure;BME280_temperature;BME280_humidity;BME280_pressure;Samples;Min_cycle;Max_cycle;Signal;HPM_P1;HPM_P2
2021/12/02 00:00:46;;;;;;;3.05;1.40;;;;;;;;;;5145902;27;20034;-69
2021/12/02 00:03:12;;;;;;;4.97;1.60;;;;;;;;;;5127327;27;20051;-69
2021/12/02 00:05:38;;;;;;;3.60;1.35;;;;;;;;;;5128313;27;20098;-70
2021/12/02 00:08:04;;;;;;;3.63;1.20;;;;;;;;;;5128147;27;20611;-70
2021/12/02 00:10:31;;;;;;;1.95;1.20;;;;;;;;;;5146810;27;20574;-69
2021/12/02 00:12:58;;;;;;;1.30;0.77;;;;;;;;;;5127262;27;20027;-69
2021/12/02 00:15:29;;;;;;;2.08;1.20;;;;;;;;;;5127350;27;20027;-69
2021/12/02 00:21:03;;;;;;;2.78;1.00;;;;;;;;;;5145611;27;20025;-69
2021/12/02 00:21:07;;;;;;;2.33;1.08;;;;;;;;;;5134823;27;20042;-69
2021/12/02 00:23:52;;;;;;;1.58;0.98;;;;;;;;;;5144928;27;20031;-69
2021/12/02 00:26:19;;;;;;;1.85;1.10;;;;;;;;;;5127892;27;20074;-68
2021/12/02 00:28:53;;;;;;;3.83;1.02;;;;;;;;;;5145939;27;20027;-68
2021/12/02 00:31:21;;;;;;;2.70;1.05;;;;;;;;;;5146309;27;20035;-68
2021/12/02 00:33:52;;;;;;;2.25;1.10;;;;;;;;;;5129448;27;20027;-68
2021/12/02 00:36:20;;;;;;;4.18;1.10;;;;;;;;;;5145141;27;20021;-68
2021/12/02 00:38:47;;;;;;;2.55;1.10;;;;;;;;;;5143740;27;20031;-68
2021/12/02 00:41:15;;;;;;;3.88;0.77;;;;;;;;;;5143170;27;20464;-68
2021/12/02 00:43:41;;;;;;;3.25;0.77;;;;;;;;;;5124719;27;20023;-69
2021/12/02 00:46:12;;;;;;;1.95;0.80;;;;;;;;;;5124385;27;20023;-69
2021/12/02 00:48:39;;;;;;;1.65;1.02;;;;;;;;;;5143136;27;20027;-69
2021/12/02 00:51:06;;;;;;;1.15;0.60;;;;;;;;;;5145402;27;20039;-69
2021/12/02 00:53:34;;;;;;;2.88;0.88;;;;;;;;;;5144770;27;20015;-69
2021/12/02 00:56:05;;;;;;;1.48;0.90;;;;;;;;;;5140429;27;20027;-70
2021/12/02 00:58:31;;;;;;;2.42;0.80;;;;;;;;;;5143658;27;20031;-69
2021/12/02 01:00:58;;;;;;;1.48;0.70;;;;;;;;;;5126645;27;20023;-69
2021/12/02 01:03:28;;;;;;;1.42;0.88;;;;;;;;;;5144822;27;20035;-71
2021/12/02 01:05:54;;;;;;;0.57;0.52;;;;;;;;;;5111517;27;20090;-70
2021/12/02 01:08:20;;;;;;;0.73;0.63;;;;;;;;;;5126444;27;20050;-70
2021/12/02 01:10:45;;;;;;;1.92;1.02;;;;;;;;;;5145212;27;20015;-71
2021/12/02 01:13:11;;;;;;;2.55;1.05;;;;;;;;;;5144145;27;20083;-70
2021/12/02 01:15:37;;;;;;;2.60;0.90;;;;;;;;;;5143140;27;20030;-70
2021/12/02 01:18:03;;;;;;;2.47;1.30;;;;;;;;;;5124490;28;20028;-70
2021/12/02 01:20:31;;;;;;;1.42;0.85;;;;;;;;;;5144356;27;20045;-71
2021/12/02 01:22:59;;;;;;;1.83;1.00;;;;;;;;;;5126190;27;20092;-71
2021/12/02 01:25:26;;;;;;;3.13;1.00;;;;;;;;;;5141814;27;20578;-70
2021/12/02 01:27:52;;;;;;;2.00;1.05;;;;;;;;;;5124663;28;20041;-71
2021/12/02 01:30:18;;;;;;;2.45;1.33;;;;;;;;;;5139290;27;20105;-71
2021/12/02 01:32:47;;;;;;;2.00;1.10;;;;;;;;;;5125410;27;20475;-71
2021/12/02 01:35:15;;;;;;;2.60;1.17;;;;;;;;;;5143982;27;20048;-71
2021/12/02 01:37:41;;;;;;;6.07;1.23;;;;;;;;;;5144815;27;20064;-73
2021/12/02 01:40:08;;;;;;;1.63;1.10;;;;;;;;;;5125600;27;20038;-73
2021/12/02 01:42:39;;;;;;;1.13;0.68;;;;;;;;;;5144746;27;20039;-72
2021/12/02 01:45:05;;;;;;;1.85;1.05;;;;;;;;;;5142520;27;20023;-73
2021/12/02 01:47:36;;;;;;;2.50;1.00;;;;;;;;;;5143805;27;20094;-72
2021/12/02 01:50:04;;;;;;;3.13;1.30;;;;;;;;;;5125656;27;20578;-72
2021/12/02 01:52:32;;;;;;;1.52;0.85;;;;;;;;;;5125574;28;20047;-72
2021/12/02 01:55:12;;;;;;;1.58;1.00;;;;;;;;;;5125764;28;20114;-71
2021/12/02 01:57:59;;;;;;;2.55;1.20;;;;;;;;;;5126183;28;20026;-70
2021/12/02 02:00:44;;;;;;;0.82;0.60;;;;;;;;;;5125736;28;20027;-71
2021/12/02 02:03:12;;;;;;;2.83;1.05;;;;;;;;;;5143134;27;20034;-72
2021/12/02 02:05:38;;;;;;;2.20;1.17;;;;;;;;;;5131659;28;20099;-71
2021/12/02 02:08:18;;;;;;;2.22;0.95;;;;;;;;;;5125715;28;20077;-72
2021/12/02 02:10:45;;;;;;;1.23;0.77;;;;;;;;;;5143695;28;20053;-71
2021/12/02 02:13:12;;;;;;;3.20;1.20;;;;;;;;;;5143501;28;20023;-72
2021/12/02 02:15:42;;;;;;;3.30;1.20;;;;;;;;;;5142884;27;20188;-71
2021/12/02 02:18:16;;;;;;;3.45;1.30;;;;;;;;;;5143242;28;20091;-69
2021/12/02 02:20:51;;;;;;;1.85;0.90;;;;;;;;;;5135578;28;20036;-69
2021/12/02 02:23:17;;;;;;;1.95;1.17;;;;;;;;;;5127611;28;20015;-70
2021/12/02 02:25:44;;;;;;;2.20;1.05;;;;;;;;;;5143256;27;20427;-69
2021/12/02 02:39:39;;;;;;;2.00;1.20;;;;;;;;;;1182080;26;2631490;-71
2021/12/02 02:46:35;;;;;;;1.55;0.70;;;;;;;;;;5007288;28;20522;-70
2021/12/02 02:53:29;;;;;;;4.15;1.40;;;;;;;;;;4992461;28;20061;-70
2021/12/02 03:14:50;;;;;;;1.27;0.93;;;;;;;;;;4705211;30;20054;-71
2021/12/02 03:21:26;;;;;;;0.98;0.65;;;;;;;;;;4695281;30;20049;-70
2021/12/02 03:24:53;;;;;;;3.50;0.80;;;;;;;;;;4687401;30;20050;-71
2021/12/02 03:28:22;;;;;;;0.98;0.65;;;;;;;;;;4676785;30;20062;-71
2021/12/02 03:31:50;;;;;;;1.75;0.93;;;;;;;;;;4689677;30;20049;-70
2021/12/02 03:35:23;;;;;;;1.27;0.95;;;;;;;;;;4686955;30;20055;-70
2021/12/02 03:38:53;;;;;;;2.88;1.25;;;;;;;;;;4679626;30;20089;-70
2021/12/02 03:42:29;;;;;;;1.13;0.98;;;;;;;;;;4729357;30;20627;-71
2021/12/02 03:49:24;;;;;;;0.95;0.65;;;;;;;;;;4793747;29;20038;-72
2021/12/02 04:06:57;;;;;;;2.50;1.40;;;;;;;;;;4762169;30;20445;-74
2021/12/02 04:10:04;;;;;;;2.15;1.33;;;;;;;;;;4744790;30;20044;-73
2021/12/02 04:13:27;;;;;;;3.65;1.58;;;;;;;;;;4732375;30;20071;-72
2021/12/02 04:16:03;;;;;;;1.27;1.02;;;;;;;;;;4734363;30;20210;-72
2021/12/02 04:18:29;;;;;;;4.03;1.55;;;;;;;;;;4703822;30;20058;-73
2021/12/02 04:20:54;;;;;;;3.80;1.77;;;;;;;;;;4704398;30;20529;-73
2021/12/02 04:23:19;;;;;;;2.25;1.15;;;;;;;;;;4879383;28;20076;-72
2021/12/02 04:25:45;;;;;;;1.70;1.17;;;;;;;;;;4986516;28;20072;-71
2021/12/02 04:28:10;;;;;;;6.97;1.33;;;;;;;;;;4988991;28;20050;-72
2021/12/02 04:30:36;;;;;;;3.13;1.13;;;;;;;;;;5013056;28;20033;-72
2021/12/02 04:33:01;;;;;;;3.45;1.50;;;;;;;;;;5007076;28;20034;-73
2021/12/02 04:35:27;;;;;;;1.73;1.02;;;;;;;;;;4985779;28;20062;-72
2021/12/02 04:37:53;;;;;;;2.17;1.15;;;;;;;;;;5005248;28;20088;-71
2021/12/02 04:40:21;;;;;;;2.25;1.20;;;;;;;;;;5002436;28;20062;-72
2021/12/02 04:42:47;;;;;;;3.58;1.75;;;;;;;;;;4999571;28;20030;-73
2021/12/02 04:45:13;;;;;;;1.17;0.90;;;;;;;;;;4985795;28;20437;-73
2021/12/02 04:47:39;;;;;;;2.38;1.30;;;;;;;;;;4983284;28;20058;-72
2021/12/02 04:50:06;;;;;;;2.55;1.70;;;;;;;;;;5004524;28;20034;-73
2021/12/02 04:52:32;;;;;;;3.30;1.50;;;;;;;;;;5004642;28;20093;-73
2021/12/02 04:54:57;;;;;;;2.65;1.48;;;;;;;;;;5002372;28;20046;-71
2021/12/02 04:57:23;;;;;;;3.30;1.27;;;;;;;;;;4995664;28;20034;-72
2021/12/02 04:59:48;;;;;;;4.65;1.65;;;;;;;;;;5004954;28;20098;-72
2021/12/02 05:02:14;;;;;;;1.67;1.15;;;;;;;;;;5003347;28;20125;-72
2021/12/02 05:04:39;;;;;;;3.00;1.45;;;;;;;;;;4975744;28;20031;-72
2021/12/02 05:07:05;;;;;;;1.38;0.82;;;;;;;;;;4997577;28;20026;-71
2021/12/02 05:09:30;;;;;;;2.55;1.48;;;;;;;;;;4989811;28;20685;-72
2021/12/02 05:11:56;;;;;;;1.80;1.00;;;;;;;;;;5001623;28;20096;-72
2021/12/02 05:14:21;;;;;;;2.50;1.20;;;;;;;;;;4974385;28;20115;-72
2021/12/02 05:16:47;;;;;;;3.92;1.38;;;;;;;;;;5001118;28;20150;-72
2021/12/02 05:19:12;;;;;;;1.95;1.20;;;;;;;;;;5003513;28;20060;-72
2021/12/02 05:21:38;;;;;;;2.22;1.02;;;;;;;;;;5002951;28;20146;-73
2021/12/02 05:24:04;;;;;;;3.35;1.40;;;;;;;;;;5002894;28;20380;-72
2021/12/02 05:26:29;;;;;;;2.10;1.00;;;;;;;;;;5000535;28;20050;-73
2021/12/02 05:28:54;;;;;;;2.22;1.00;;;;;;;;;;5002724;28;20037;-72
2021/12/02 05:31:21;;;;;;;2.08;1.13;;;;;;;;;;4985920;28;20030;-74
2021/12/02 05:33:47;;;;;;;2.88;1.08;;;;;;;;;;5004278;28;20049;-73
2021/12/02 05:36:12;;;;;;;1.45;0.88;;;;;;;;;;5003830;28;20034;-72
2021/12/02 05:38:38;;;;;;;2.47;1.17;;;;;;;;;;5004308;28;20038;-72
2021/12/02 05:41:04;;;;;;;2.85;1.08;;;;;;;;;;5004220;28;20022;-73
2021/12/02 05:43:30;;;;;;;0.93;0.52;;;;;;;;;;5003970;28;20711;-73
2021/12/02 05:45:56;;;;;;;1.77;0.80;;;;;;;;;;5003440;28;20026;-72
2021/12/02 05:48:22;;;;;;;2.45;1.05;;;;;;;;;;4988517;28;20038;-73
2021/12/02 05:50:49;;;;;;;2.15;1.10;;;;;;;;;;4985665;28;20406;-73
2021/12/02 05:53:14;;;;;;;2.25;0.93;;;;;;;;;;4984653;28;20041;-73
2021/12/02 05:55:40;;;;;;;0.90;0.55;;;;;;;;;;5001425;28;20026;-73
2021/12/02 05:58:07;;;;;;;1.52;0.82;;;;;;;;;;5012118;28;20113;-73
2021/12/02 06:00:35;;;;;;;0.45;0.45;;;;;;;;;;5009558;28;20117;-73
2021/12/02 06:03:01;;;;;;;1.95;1.27;;;;;;;;;;5005523;28;20027;-73
2021/12/02 06:05:27;;;;;;;1.80;0.80;;;;;;;;;;5004661;28;20048;-73
2021/12/02 06:07:56;;;;;;;8.80;1.10;;;;;;;;;;5003276;28;20026;-72
2021/12/02 06:10:22;;;;;;;0.73;0.57;;;;;;;;;;5008947;28;20027;-73
2021/12/02 06:12:48;;;;;;;1.77;0.70;;;;;;;;;;4985348;28;20040;-72
2021/12/02 06:15:14;;;;;;;2.40;1.05;;;;;;;;;;5002747;28;20086;-72
2021/12/02 06:17:39;;;;;;;1.60;1.00;;;;;;;;;;5002696;28;20041;-72
2021/12/02 06:20:06;;;;;;;1.60;0.70;;;;;;;;;;4985980;28;20033;-73
2021/12/02 06:22:33;;;;;;;2.28;0.70;;;;;;;;;;4984930;28;20657;-73
2021/12/02 06:27:48;;;;;;;2.80;0.93;;;;;;;;;;5002183;28;20038;-73
2021/12/02 06:30:15;;;;;;;3.80;1.00;;;;;;;;;;4998569;28;20066;-74
2021/12/02 06:32:41;;;;;;;3.03;0.85;;;;;;;;;;5001267;28;20047;-72
2021/12/02 06:35:07;;;;;;;0.73;0.63;;;;;;;;;;5003870;28;20026;-73
2021/12/02 06:37:33;;;;;;;3.47;1.10;;;;;;;;;;4985545;28;20049;-72
2021/12/02 06:39:58;;;;;;;1.40;0.80;;;;;;;;;;5002043;28;20038;-73
2021/12/02 06:42:24;;;;;;;2.83;0.88;;;;;;;;;;5003121;28;20379;-72
2021/12/02 06:44:49;;;;;;;2.03;0.65;;;;;;;;;;4986359;28;20049;-73
2021/12/02 06:47:15;;;;;;;2.13;0.95;;;;;;;;;;4989484;28;20035;-73
2021/12/02 06:49:41;;;;;;;1.20;0.68;;;;;;;;;;4982270;28;20050;-72
2021/12/02 06:52:13;;;;;;;1.90;1.00;;;;;;;;;;4991613;28;20491;-72
2021/12/02 06:54:39;;;;;;;1.90;0.95;;;;;;;;;;4985840;28;20038;-71
2021/12/02 06:57:04;;;;;;;0.70;0.50;;;;;;;;;;5001714;28;20030;-72
2021/12/02 06:59:30;;;;;;;2.38;0.85;;;;;;;;;;5003414;28;20061;-71
2021/12/02 07:01:55;;;;;;;1.33;0.70;;;;;;;;;;5000297;28;20532;-73
2021/12/02 07:04:21;;;;;;;1.13;0.85;;;;;;;;;;4984147;28;20655;-73
2021/12/02 07:06:47;;;;;;;2.67;1.10;;;;;;;;;;4998259;28;20055;-73
2021/12/02 07:09:12;;;;;;;2.10;1.08;;;;;;;;;;4998018;28;20037;-72
2021/12/02 07:11:38;;;;;;;1.10;0.70;;;;;;;;;;5002562;28;20034;-72
2021/12/02 07:14:07;;;;;;;0.95;0.60;;;;;;;;;;5000211;28;20030;-72
2021/12/02 07:16:33;;;;;;;0.95;0.65;;;;;;;;;;4983518;28;20029;-72
2021/12/02 07:19:02;;;;;;;1.65;0.90;;;;;;;;;;4983769;28;20022;-72
2021/12/02 07:21:28;;;;;;;1.25;0.95;;;;;;;;;;5004414;28;20034;-72
2021/12/02 07:23:54;;;;;;;1.60;0.70;;;;;;;;;;5006239;28;20053;-71
2021/12/02 07:26:19;;;;;;;1.60;0.95;;;;;;;;;;5009833;28;20018;-72
2021/12/02 07:28:46;;;;;;;1.15;0.80;;;;;;;;;;5026620;28;20084;-72
2021/12/02 07:31:12;;;;;;;2.80;0.80;;;;;;;;;;5016713;28;20034;-71
2021/12/02 07:33:42;;;;;;;0.98;0.68;;;;;;;;;;5005208;28;20061;-72
2021/12/02 07:36:08;;;;;;;4.07;0.95;;;;;;;;;;4996838;28;20112;-71
2021/12/02 07:38:38;;;;;;;2.30;0.82;;;;;;;;;;4987310;28;20049;-72
2021/12/02 07:41:05;;;;;;;1.15;0.88;;;;;;;;;;5001445;28;20030;-72
2021/12/02 07:43:41;;;;;;;2.45;0.80;;;;;;;;;;4992255;28;20034;-73
2021/12/02 07:46:07;;;;;;;1.45;0.80;;;;;;;;;;5003384;28;20031;-71
2021/12/02 07:48:34;;;;;;;1.25;0.52;;;;;;;;;;4972898;28;20033;-72
2021/12/02 07:51:02;;;;;;;3.10;1.02;;;;;;;;;;5004434;28;20034;-72
2021/12/02 07:53:28;;;;;;;1.52;0.80;;;;;;;;;;5006590;28;20033;-72
2021/12/02 07:55:56;;;;;;;2.25;0.70;;;;;;;;;;4988678;28;20038;-73
2021/12/02 07:58:23;;;;;;;2.80;0.80;;;;;;;;;;5006501;28;20026;-73
2021/12/02 08:00:49;;;;;;;0.52;0.50;;;;;;;;;;5005265;28;20094;-73
2021/12/02 08:03:15;;;;;;;0.65;0.60;;;;;;;;;;4988143;28;20031;-73
2021/12/02 08:05:41;;;;;;;1.80;0.52;;;;;;;;;;5005591;28;20062;-73
2021/12/02 08:08:07;;;;;;;1.40;0.70;;;;;;;;;;4998158;28;20502;-72
2021/12/02 08:10:33;;;;;;;0.55;0.47;;;;;;;;;;4987081;28;20046;-72
2021/12/02 08:13:01;;;;;;;1.42;0.63;;;;;;;;;;5005089;28;20042;-72
2021/12/02 08:15:28;;;;;;;1.95;0.70;;;;;;;;;;4997494;28;20027;-72
2021/12/02 08:17:55;;;;;;;1.70;0.77;;;;;;;;;;4987615;28;20034;-71
2021/12/02 08:20:23;;;;;;;1.25;0.55;;;;;;;;;;5004324;28;20034;-71
2021/12/02 08:22:48;;;;;;;1.13;0.50;;;;;;;;;;5005638;28;20037;-69
2021/12/02 08:25:15;;;;;;;0.60;0.60;;;;;;;;;;5007742;28;20031;-71
2021/12/02 08:27:41;;;;;;;1.90;0.65;;;;;;;;;;4996900;28;20026;-73
2021/12/02 08:30:09;;;;;;;1.25;0.85;;;;;;;;;;5006692;28;20058;-69
2021/12/02 08:32:37;;;;;;;0.60;0.60;;;;;;;;;;5006600;28;20062;-71
2021/12/02 08:35:03;;;;;;;0.88;0.55;;;;;;;;;;5006922;28;20034;-74
2021/12/02 08:37:31;;;;;;;1.77;0.88;;;;;;;;;;5006046;28;20034;-73
2021/12/02 08:39:59;;;;;;;0.82;0.50;;;;;;;;;;5006158;28;20047;-74
2021/12/02 08:42:25;;;;;;;1.42;0.88;;;;;;;;;;4982411;28;20026;-71
2021/12/02 08:44:53;;;;;;;1.65;0.98;;;;;;;;;;5004378;28;20027;-72
2021/12/02 08:47:22;;;;;;;1.63;0.68;;;;;;;;;;4988368;28;20485;-72
2021/12/02 08:49:47;;;;;;;1.67;0.77;;;;;;;;;;5006469;28;20238;-72
2021/12/02 08:52:13;;;;;;;1.40;0.90;;;;;;;;;;4988603;28;20126;-70
2021/12/02 08:54:38;;;;;;;2.20;0.75;;;;;;;;;;5006278;28;20026;-72
2021/12/02 08:57:04;;;;;;;1.95;1.05;;;;;;;;;;4992209;28;20034;-73
2021/12/02 08:59:30;;;;;;;1.27;0.88;;;;;;;;;;4997952;28;20034;-73
2021/12/02 09:01:55;;;;;;;3.60;1.08;;;;;;;;;;5023069;28;20022;-74
2021/12/02 09:04:21;;;;;;;3.42;1.30;;;;;;;;;;5023514;28;20030;-73
2021/12/02 09:06:46;;;;;;;1.30;0.95;;;;;;;;;;4988383;28;20053;-73
2021/12/02 09:09:12;;;;;;;2.30;1.10;;;;;;;;;;4976225;28;20042;-73
2021/12/02 09:11:37;;;;;;;3.78;1.38;;;;;;;;;;5008205;28;20034;-73
2021/12/02 09:14:05;;;;;;;3.63;1.23;;;;;;;;;;5018014;28;20030;-73
2021/12/02 09:16:32;;;;;;;1.65;1.13;;;;;;;;;;5004845;28;20026;-73
2021/12/02 09:18:58;;;;;;;3.00;1.20;;;;;;;;;;5008251;28;20050;-75
2021/12/02 09:21:25;;;;;;;1.85;0.85;;;;;;;;;;4998246;28;20034;-74
2021/12/02 09:23:51;;;;;;;3.05;1.33;;;;;;;;;;5000395;28;20026;-76
2021/12/02 09:26:17;;;;;;;2.55;1.17;;;;;;;;;;4987504;28;20034;-72
2021/12/02 09:28:43;;;;;;;0.98;0.73;;;;;;;;;;5013803;28;20115;-74
2021/12/02 09:31:10;;;;;;;3.38;0.90;;;;;;;;;;4995213;28;20813;-73
2021/12/02 09:33:39;;;;;;;0.60;0.40;;;;;;;;;;4969175;28;20034;-74
2021/12/02 09:36:04;;;;;;;0.50;0.40;;;;;;;;;;4967774;28;20482;-75
2021/12/02 09:38:30;;;;;;;0.50;0.30;;;;;;;;;;4985268;28;20082;-73
2021/12/02 09:40:55;;;;;;;0.55;0.40;;;;;;;;;;4968593;28;20379;-75
2021/12/02 09:43:21;;;;;;;1.70;0.50;;;;;;;;;;4986055;28;20038;-74
2021/12/02 09:45:49;;;;;;;0.25;0.25;;;;;;;;;;4986141;28;20050;-74
2021/12/02 09:48:14;;;;;;;0.22;0.22;;;;;;;;;;4985850;28;20042;-73
2021/12/02 09:50:52;;;;;;;0.30;0.30;;;;;;;;;;4985871;28;20026;-74
2021/12/02 09:53:22;;;;;;;0.20;0.20;;;;;;;;;;4985263;28;20031;-74
2021/12/02 09:58:31;;;;;;;0.22;0.22;;;;;;;;;;4985457;28;20081;-74
2021/12/02 10:01:12;;;;;;;0.10;0.10;;;;;;;;;;4967634;28;20705;-75
2021/12/02 10:03:40;;;;;;;0.40;0.20;;;;;;;;;;4985277;28;20027;-75
2021/12/02 10:06:14;;;;;;;1.45;0.20;;;;;;;;;;4967751;28;20089;-75
2021/12/02 10:08:53;;;;;;;0.63;0.25;;;;;;;;;;4984589;28;20057;-73
2021/12/02 10:11:50;;;;;;;0.20;0.20;;;;;;;;;;4967619;28;20490;-74
2021/12/02 10:14:31;;;;;;;0.40;0.22;;;;;;;;;;4985543;28;20030;-74
2021/12/02 10:17:32;;;;;;;0.70;0.35;;;;;;;;;;4967687;28;20030;-74
2021/12/02 10:20:41;;;;;;;0.52;0.52;;;;;;;;;;4985562;28;20030;-74
2021/12/02 10:23:24;;;;;;;1.05;0.30;;;;;;;;;;4985236;28;20023;-72
2021/12/02 10:25:49;;;;;;;0.30;0.25;;;;;;;;;;4967041;28;20039;-74
2021/12/02 10:28:18;;;;;;;0.30;0.30;;;;;;;;;;4985134;28;20115;-71
2021/12/02 10:31:05;;;;;;;2.25;0.30;;;;;;;;;;4984894;28;20057;-75
2021/12/02 10:33:41;;;;;;;0.43;0.40;;;;;;;;;;4961277;28;20034;-71
2021/12/02 10:36:22;;;;;;;0.55;0.30;;;;;;;;;;4984668;28;20082;-72
2021/12/02 10:38:47;;;;;;;0.40;0.28;;;;;;;;;;4985029;28;20054;-72
2021/12/02 10:41:20;;;;;;;0.75;0.40;;;;;;;;;;4967416;28;20027;-74
2021/12/02 10:44:07;;;;;;;0.40;0.28;;;;;;;;;;4984993;28;20030;-73
2021/12/02 10:46:35;;;;;;;0.40;0.40;;;;;;;;;;4967668;28;20038;-72
2021/12/02 10:49:02;;;;;;;2.30;0.70;;;;;;;;;;4966306;28;20023;-73
2021/12/02 10:51:52;;;;;;;0.88;0.50;;;;;;;;;;4984815;28;20043;-75
2021/12/02 10:54:39;;;;;;;0.43;0.40;;;;;;;;;;4966819;28;20047;-73
2021/12/02 10:57:09;;;;;;;0.75;0.40;;;;;;;;;;4987670;28;20094;-72
2021/12/02 10:59:42;;;;;;;0.77;0.32;;;;;;;;;;4971017;28;20089;-73
2021/12/02 11:02:29;;;;;;;0.25;0.25;;;;;;;;;;4988456;28;20434;-71
2021/12/02 11:05:05;;;;;;;0.30;0.30;;;;;;;;;;4970973;28;20515;-72
2021/12/02 11:07:41;;;;;;;0.40;0.40;;;;;;;;;;4988229;28;20380;-73
2021/12/02 11:10:15;;;;;;;1.10;0.43;;;;;;;;;;4988050;28;20027;-73
2021/12/02 11:12:41;;;;;;;0.43;0.40;;;;;;;;;;4988185;28;20015;-73
2021/12/02 11:15:16;;;;;;;1.60;0.50;;;;;;;;;;4987285;28;20043;-72
2021/12/02 11:17:51;;;;;;;0.30;0.30;;;;;;;;;;4970233;28;20023;-73
2021/12/02 11:20:20;;;;;;;1.00;0.30;;;;;;;;;;4971068;28;20031;-72
2021/12/02 11:22:49;;;;;;;1.13;0.50;;;;;;;;;;4970638;28;20086;-72
2021/12/02 11:25:14;;;;;;;0.50;0.40;;;;;;;;;;4970183;28;20038;-74
2021/12/02 11:27:45;;;;;;;1.33;0.40;;;;;;;;;;4987738;28;20031;-73
2021/12/02 11:30:22;;;;;;;0.40;0.40;;;;;;;;;;4970395;28;20034;-72
2021/12/02 11:32:58;;;;;;;2.58;0.60;;;;;;;;;;4987890;28;20031;-70
2021/12/02 11:35:44;;;;;;;0.47;0.40;;;;;;;;;;4987567;28;20061;-71
2021/12/02 11:38:18;;;;;;;0.50;0.40;;;;;;;;;;4987485;28;20030;-74
2021/12/02 11:40:46;;;;;;;0.85;0.30;;;;;;;;;;4969635;28;20059;-70
2021/12/02 11:43:16;;;;;;;1.33;0.50;;;;;;;;;;4970103;28;20023;-73
2021/12/02 11:45:46;;;;;;;1.58;0.40;;;;;;;;;;4987496;28;20034;-73
2021/12/02 11:48:15;;;;;;;1.67;0.40;;;;;;;;;;4987707;28;20097;-74
2021/12/02 11:50:41;;;;;;;1.65;0.47;;;;;;;;;;4987608;28;20050;-73
2021/12/02 11:53:06;;;;;;;1.13;0.50;;;;;;;;;;4969817;28;20126;-71
2021/12/02 11:55:39;;;;;;;0.73;0.43;;;;;;;;;;4987580;28;20023;-73
2021/12/02 11:58:05;;;;;;;0.82;0.50;;;;;;;;;;4987564;28;20026;-73
2021/12/02 12:00:31;;;;;;;0.40;0.30;;;;;;;;;;4970167;28;20069;-70
2021/12/02 12:03:06;;;;;;;1.15;0.45;;;;;;;;;;4970040;28;20029;-72
2021/12/02 12:05:38;;;;;;;1.20;0.50;;;;;;;;;;4987420;28;20038;-75
2021/12/02 12:08:04;;;;;;;1.73;0.60;;;;;;;;;;4987488;28;20031;-73
2021/12/02 12:10:33;;;;;;;0.80;0.50;;;;;;;;;;4987348;28;20026;-72
2021/12/02 12:13:20;;;;;;;2.28;0.60;;;;;;;;;;4988177;28;20027;-73
2021/12/02 12:16:00;;;;;;;1.25;0.60;;;;;;;;;;4988259;28;20035;-72
2021/12/02 12:18:25;;;;;;;0.65;0.47;;;;;;;;;;4987030;28;20489;-73
2021/12/02 12:20:56;;;;;;;1.70;0.90;;;;;;;;;;4970366;28;20054;-71
2021/12/02 12:23:45;;;;;;;0.60;0.47;;;;;;;;;;4987828;28;20025;-72
2021/12/02 12:26:26;;;;;;;1.67;0.70;;;;;;;;;;4970132;28;20031;-72
2021/12/02 12:29:06;;;;;;;0.75;0.57;;;;;;;;;;4987528;28;20054;-73
2021/12/02 12:31:38;;;;;;;2.78;0.80;;;;;;;;;;4987167;28;20058;-71
2021/12/02 12:37:13;;;;;;;1.55;0.73;;;;;;;;;;4987363;28;20043;-73
2021/12/02 12:39:39;;;;;;;1.23;0.50;;;;;;;;;;4986702;28;20134;-75
2021/12/02 12:42:16;;;;;;;2.40;0.77;;;;;;;;;;4986982;28;20027;-74
2021/12/02 12:44:50;;;;;;;4.00;0.40;;;;;;;;;;4987353;28;20030;-73
2021/12/02 12:47:17;;;;;;;3.40;0.60;;;;;;;;;;4987353;28;20031;-71
2021/12/02 12:49:45;;;;;;;2.13;0.70;;;;;;;;;;4987063;28;20644;-73
2021/12/02 12:52:16;;;;;;;1.42;0.57;;;;;;;;;;4969494;28;20031;-71
2021/12/02 12:54:42;;;;;;;0.35;0.30;;;;;;;;;;4969684;28;20026;-72
2021/12/02 12:57:08;;;;;;;1.55;0.50;;;;;;;;;;4969485;28;20027;-72
2021/12/02 12:59:54;;;;;;;1.05;0.63;;;;;;;;;;4987258;28;20030;-72
2021/12/02 13:02:20;;;;;;;1.45;0.65;;;;;;;;;;4986818;28;20027;-72
2021/12/02 13:04:53;;;;;;;2.50;0.70;;;;;;;;;;4986835;28;20038;-71
2021/12/02 13:07:20;;;;;;;1.00;0.60;;;;;;;;;;4969173;28;20494;-71
2021/12/02 13:09:54;;;;;;;1.58;0.70;;;;;;;;;;4986862;28;20027;-71
2021/12/02 13:12:45;;;;;;;0.95;0.60;;;;;;;;;;4986428;28;20042;-72
2021/12/02 13:15:11;;;;;;;2.10;0.80;;;;;;;;;;4969425;28;20027;-72
2021/12/02 13:17:50;;;;;;;1.80;0.52;;;;;;;;;;4967613;28;20038;-72
2021/12/02 13:20:28;;;;;;;1.00;0.70;;;;;;;;;;4986554;28;20049;-73
2021/12/02 13:23:27;;;;;;;1.10;0.70;;;;;;;;;;4986411;28;20030;-72
2021/12/02 13:26:04;;;;;;;0.75;0.60;;;;;;;;;;4954262;28;20030;-71
2021/12/02 13:28:43;;;;;;;0.65;0.45;;;;;;;;;;4985788;28;20492;-71
2021/12/02 13:31:12;;;;;;;1.92;0.60;;;;;;;;;;4964921;28;20045;-71
2021/12/02 13:33:47;;;;;;;2.78;0.65;;;;;;;;;;4984836;28;20038;-70
2021/12/02 13:36:15;;;;;;;0.77;0.50;;;;;;;;;;4985048;28;20026;-70
2021/12/02 13:38:56;;;;;;;0.77;0.57;;;;;;;;;;4967783;28;20085;-70
2021/12/02 13:41:21;;;;;;;1.65;0.77;;;;;;;;;;4986017;28;20026;-71
2021/12/02 13:44:17;;;;;;;1.15;0.75;;;;;;;;;;4985811;28;20089;-70
2021/12/02 13:47:16;;;;;;;2.05;0.60;;;;;;;;;;4961029;28;20093;-70
2021/12/02 13:49:54;;;;;;;1.10;0.77;;;;;;;;;;4965378;28;20189;-70
2021/12/02 13:55:07;;;;;;;2.05;0.70;;;;;;;;;;4985432;28;20037;-70
2021/12/02 13:57:47;;;;;;;1.50;0.70;;;;;;;;;;4967515;28;20027;-71
2021/12/02 14:00:24;;;;;;;0.98;0.65;;;;;;;;;;4985395;28;20371;-71
2021/12/02 14:02:59;;;;;;;0.88;0.70;;;;;;;;;;4984936;28;20094;-72
2021/12/02 14:05:28;;;;;;;0.85;0.52;;;;;;;;;;4985140;28;20062;-71
2021/12/02 14:07:57;;;;;;;1.90;0.52;;;;;;;;;;4984965;28;20049;-70
2021/12/02 14:10:25;;;;;;;2.83;0.73;;;;;;;;;;4985048;28;20046;-69
2021/12/02 14:12:56;;;;;;;0.85;0.57;;;;;;;;;;4967388;28;20035;-70
2021/12/02 14:15:24;;;;;;;0.50;0.50;;;;;;;;;;4984638;28;20094;-71
2021/12/02 14:17:59;;;;;;;0.85;0.60;;;;;;;;;;4984713;28;20144;-71
2021/12/02 14:20:31;;;;;;;3.00;0.63;;;;;;;;;;4984966;28;20039;-72
2021/12/02 14:22:57;;;;;;;1.50;0.70;;;;;;;;;;4967244;28;20154;-71
2021/12/02 14:25:26;;;;;;;0.93;0.52;;;;;;;;;;4966385;28;20023;-71
2021/12/02 14:28:10;;;;;;;0.88;0.65;;;;;;;;;;4966458;28;20081;-69
2021/12/02 14:30:40;;;;;;;1.40;0.82;;;;;;;;;;4984257;28;20019;-71
2021/12/02 14:33:08;;;;;;;1.63;0.73;;;;;;;;;;4984433;28;20019;-71
2021/12/02 14:35:48;;;;;;;2.35;0.75;;;;;;;;;;4967388;28;20027;-71
2021/12/02 14:38:23;;;;;;;1.73;0.70;;;;;;;;;;4966801;28;20031;-70
2021/12/02 14:40:53;;;;;;;1.42;0.70;;;;;;;;;;4984201;28;20089;-71
2021/12/02 14:43:28;;;;;;;2.28;0.85;;;;;;;;;;4984474;28;20083;-70
2021/12/02 14:46:20;;;;;;;3.08;1.23;;;;;;;;;;4967415;28;20038;-70
2021/12/02 14:49:00;;;;;;;1.92;0.70;;;;;;;;;;4967086;28;20035;-70
2021/12/02 14:51:26;;;;;;;0.55;0.40;;;;;;;;;;4984147;28;20042;-71
2021/12/02 14:53:58;;;;;;;1.02;0.60;;;;;;;;;;4967154;28;20031;-71
2021/12/02 14:56:33;;;;;;;2.28;0.60;;;;;;;;;;4966974;28;20023;-71
2021/12/02 14:59:16;;;;;;;2.15;0.80;;;;;;;;;;4984646;28;20110;-71
2021/12/02 15:01:58;;;;;;;2.65;0.80;;;;;;;;;;4966880;28;20022;-71
2021/12/02 15:04:26;;;;;;;2.72;0.80;;;;;;;;;;4984401;28;20094;-72
2021/12/02 15:06:52;;;;;;;0.90;0.60;;;;;;;;;;4984268;28;20050;-73
2021/12/02 15:09:30;;;;;;;0.50;0.50;;;;;;;;;;4984141;28;20035;-69
2021/12/02 15:11:59;;;;;;;1.15;0.60;;;;;;;;;;4984247;28;20066;-69
2021/12/02 15:14:52;;;;;;;0.98;0.50;;;;;;;;;;4984045;28;20023;-70
2021/12/02 15:17:32;;;;;;;3.50;0.43;;;;;;;;;;4981485;28;20054;-70
2021/12/02 15:20:07;;;;;;;3.03;0.98;;;;;;;;;;4984506;28;20079;-70
2021/12/02 15:22:35;;;;;;;0.45;0.40;;;;;;;;;;4984857;28;20042;-70
2021/12/02 15:25:17;;;;;;;1.83;0.55;;;;;;;;;;4984528;28;20114;-69
2021/12/02 15:27:58;;;;;;;0.38;0.38;;;;;;;;;;4984320;28;20055;-70
2021/12/02 15:30:24;;;;;;;1.42;0.80;;;;;;;;;;4984230;28;20035;-69
2021/12/02 15:32:50;;;;;;;1.20;0.60;;;;;;;;;;4984099;28;20022;-69
2021/12/02 15:35:17;;;;;;;2.05;0.60;;;;;;;;;;4984672;28;20026;-70
2021/12/02 15:37:43;;;;;;;1.80;0.60;;;;;;;;;;4983995;28;20034;-69
2021/12/02 15:40:09;;;;;;;1.13;0.68;;;;;;;;;;4984188;28;20047;-69
2021/12/02 15:42:36;;;;;;;2.75;0.70;;;;;;;;;;4987138;28;20023;-69
2021/12/02 15:45:02;;;;;;;3.10;0.90;;;;;;;;;;4970603;28;20035;-69
2021/12/02 15:47:28;;;;;;;4.03;1.00;;;;;;;;;;4970116;28;20033;-69
2021/12/02 15:50:01;;;;;;;2.53;0.90;;;;;;;;;;4988194;28;20031;-69
2021/12/02 15:52:31;;;;;;;2.15;0.80;;;;;;;;;;4987671;28;20019;-69
2021/12/02 15:54:56;;;;;;;2.88;0.70;;;;;;;;;;4970294;28;20065;-69
2021/12/02 15:57:22;;;;;;;1.10;0.77;;;;;;;;;;4987245;28;20023;-69
2021/12/02 15:59:48;;;;;;;3.88;1.05;;;;;;;;;;4970261;28;20027;-69
2021/12/02 16:04:57;;;;;;;2.92;0.70;;;;;;;;;;4986742;28;20026;-68
2021/12/02 16:07:27;;;;;;;1.35;0.70;;;;;;;;;;4987436;28;20086;-68
2021/12/02 16:12:33;;;;;;;1.50;0.90;;;;;;;;;;4987439;28;20035;-69
2021/12/02 16:15:02;;;;;;;1.50;0.90;;;;;;;;;;4969989;28;20031;-69
2021/12/02 16:17:28;;;;;;;1.23;0.90;;;;;;;;;;4987353;28;20042;-69
2021/12/02 16:19:54;;;;;;;3.28;1.00;;;;;;;;;;4987280;28;20027;-69
2021/12/02 16:22:22;;;;;;;2.00;0.93;;;;;;;;;;4987223;28;20031;-69
2021/12/02 16:24:50;;;;;;;4.32;0.90;;;;;;;;;;4969609;28;20027;-69
2021/12/02 16:27:15;;;;;;;2.40;0.77;;;;;;;;;;4969647;28;20160;-69